sensor_id;sensor_type;location;lat;lon;timestamp;P1;durP1;ratioP1;P2;durP2;ratioP2
35306;SDS011;21420;52.196;21.416;2023-05-10T00:01:58;12.40;;;8.10;;
35306;SDS011;21420;52.196;21.416;2023-05-10T00:04:24;13.20;;;7.60;;
35306;SDS011;21420;52.196;21.416;2023-05-10T00:06:53;12.90;;;8.20;;
35306;SDS011;21420;52.196;21.416;2023-05-10T00:09:21;14.30;;;8.00;;
35306;SDS011;21420;52.196;21.416;2023-05-10T00:11:47;13.60;;;7.80;;
35306;SDS011;21420;52.196;21.416;2023-05-10T00:14:14;11.20;;;7.50;;
35306;SDS011;21420;52.196;21.416;2023-05-10T00:16:40;11.70;;;7.10;;
35306;SDS011;21420;52.196;21.416;2023-05-10T00:19:07;12.20;;;7.50;;
35306;SDS011;21420;52.196;21.416;2023-05-10T00:21:34;14.20;;;7.70;;
35306;SDS011;21420;52.196;21.416;2023-05-10T00:24:00;11.20;;;8.30;;
35306;SDS011;21420;52.196;21.416;2023-05-10T00:26:27;10.70;;;7.70;;
35306;SDS011;21420;52.196;21.416;2023-05-10T00:28:54;13.00;;;7.70;;
35306;SDS011;21420;52.196;21.416;2023-05-10T00:31:20;10.60;;;7.10;;
35306;SDS011;21420;52.196;21.416;2023-05-10T00:33:47;9.60;;;7.40;;
35306;SDS011;21420;52.196;21.416;2023-05-10T00:36:13;11.30;;;7.30;;
35306;SDS011;21420;52.196;21.416;2023-05-10T00:38:40;13.40;;;8.00;;
35306;SDS011;21420;52.196;21.416;2023-05-10T00:41:06;15.30;;;7.80;;
35306;SDS011;21420;52.196;21.416;2023-05-10T00:43:34;11.70;;;6.50;;
35306;SDS011;21420;52.196;21.416;2023-05-10T00:46:03;12.80;;;7.70;;
35306;SDS011;21420;52.196;21.416;2023-05-10T00:48:31;11.80;;;7.70;;
35306;SDS011;21420;52.196;21.416;2023-05-10T00:50:58;11.60;;;7.40;;
35306;SDS011;21420;52.196;21.416;2023-05-10T00:53:24;10.60;;;7.20;;
35306;SDS011;21420;52.196;21.416;2023-05-10T00:55:51;8.20;;;6.40;;
35306;SDS011;21420;52.196;21.416;2023-05-10T00:58:18;11.90;;;8.10;;
35306;SDS011;21420;52.196;21.416;2023-05-10T01:00:45;11.00;;;7.60;;
35306;SDS011;21420;52.196;21.416;2023-05-10T01:03:12;14.00;;;7.90;;
35306;SDS011;21420;52.196;21.416;2023-05-10T01:05:40;11.70;;;8.00;;
35306;SDS011;21420;52.196;21.416;2023-05-10T01:08:06;9.90;;;7.10;;
35306;SDS011;21420;52.196;21.416;2023-05-10T01:10:34;10.40;;;6.90;;
35306;SDS011;21420;52.196;21.416;2023-05-10T01:13:01;11.30;;;6.80;;
35306;SDS011;21420;52.196;21.416;2023-05-10T01:15:29;11.50;;;6.90;;
35306;SDS011;21420;52.196;21.416;2023-05-10T01:17:57;9.50;;;7.50;;
35306;SDS011;21420;52.196;21.416;2023-05-10T01:20:24;11.30;;;7.40;;
35306;SDS011;21420;52.196;21.416;2023-05-10T01:25:59;11.50;;;7.00;;
35306;SDS011;21420;52.196;21.416;2023-05-10T01:34:16;16.20;;;6.90;;
35306;SDS011;21420;52.196;21.416;2023-05-10T01:36:48;12.40;;;7.10;;
35306;SDS011;21420;52.196;21.416;2023-05-10T01:39:25;11.20;;;6.90;;
35306;SDS011;21420;52.196;21.416;2023-05-10T01:42:25;11.20;;;6.80;;
35306;SDS011;21420;52.196;21.416;2023-05-10T01:44:59;11.70;;;6.60;;
35306;SDS011;21420;52.196;21.416;2023-05-10T01:50:00;15.40;;;7.60;;
35306;SDS011;21420;52.196;21.416;2023-05-10T01:52:38;17.70;;;6.70;;
35306;SDS011;21420;52.196;21.416;2023-05-10T01:55:08;12.50;;;6.40;;
35306;SDS011;21420;52.196;21.416;2023-05-10T01:57:39;16.10;;;6.10;;
35306;SDS011;21420;52.196;21.416;2023-05-10T02:00:09;15.00;;;6.50;;
35306;SDS011;21420;52.196;21.416;2023-05-10T02:02:40;9.60;;;6.60;;
35306;SDS011;21420;52.196;21.416;2023-05-10T02:05:12;10.70;;;6.60;;
35306;SDS011;21420;52.196;21.416;2023-05-10T02:10:09;10.40;;;6.60;;
35306;SDS011;21420;52.196;21.416;2023-05-10T02:12:37;9.50;;;7.10;;
35306;SDS011;21420;52.196;21.416;2023-05-10T02:15:08;8.40;;;5.80;;
35306;SDS011;21420;52.196;21.416;2023-05-10T02:17:37;11.70;;;6.80;;
35306;SDS011;21420;52.196;21.416;2023-05-10T02:20:05;8.00;;;6.00;;
35306;SDS011;21420;52.196;21.416;2023-05-10T02:22:34;8.40;;;6.60;;
35306;SDS011;21420;52.196;21.416;2023-05-10T02:25:02;8.60;;;5.70;;
35306;SDS011;21420;52.196;21.416;2023-05-10T02:27:29;9.50;;;6.00;;
35306;SDS011;21420;52.196;21.416;2023-05-10T02:29:56;10.50;;;6.20;;
35306;SDS011;21420;52.196;21.416;2023-05-10T02:32:24;12.70;;;6.40;;
35306;SDS011;21420;52.196;21.416;2023-05-10T02:34:55;12.80;;;6.40;;
35306;SDS011;21420;52.196;21.416;2023-05-10T02:37:23;14.00;;;6.30;;
35306;SDS011;21420;52.196;21.416;2023-05-10T02:39:52;10.30;;;5.70;;
35306;SDS011;21420;52.196;21.416;2023-05-10T02:42:26;12.40;;;6.90;;
35306;SDS011;21420;52.196;21.416;2023-05-10T02:44:59;10.70;;;6.70;;
35306;SDS011;21420;52.196;21.416;2023-05-10T02:47:28;10.60;;;6.10;;
35306;SDS011;21420;52.196;21.416;2023-05-10T02:49:56;10.50;;;6.90;;
35306;SDS011;21420;52.196;21.416;2023-05-10T02:52:23;9.40;;;7.00;;
35306;SDS011;21420;52.196;21.416;2023-05-10T02:54:58;12.90;;;7.10;;
35306;SDS011;21420;52.196;21.416;2023-05-10T02:57:31;8.80;;;6.70;;
35306;SDS011;21420;52.196;21.416;2023-05-10T03:00:01;13.50;;;7.00;;
35306;SDS011;21420;52.196;21.416;2023-05-10T03:02:29;11.40;;;6.60;;
35306;SDS011;21420;52.196;21.416;2023-05-10T03:04:58;13.00;;;7.10;;
35306;SDS011;21420;52.196;21.416;2023-05-10T03:07:25;11.50;;;6.40;;
35306;SDS011;21420;52.196;21.416;2023-05-10T03:09:51;11.80;;;6.80;;
35306;SDS011;21420;52.196;21.416;2023-05-10T03:12:27;10.40;;;8.10;;
35306;SDS011;21420;52.196;21.416;2023-05-10T03:15:22;10.20;;;6.40;;
35306;SDS011;21420;52.196;21.416;2023-05-10T03:17:57;11.60;;;7.20;;
35306;SDS011;21420;52.196;21.416;2023-05-10T03:20:38;14.60;;;8.10;;
35306;SDS011;21420;52.196;21.416;2023-05-10T03:23:18;13.10;;;7.80;;
35306;SDS011;21420;52.196;21.416;2023-05-10T03:25:48;12.30;;;7.40;;
35306;SDS011;21420;52.196;21.416;2023-05-10T03:28:17;10.20;;;6.50;;
35306;SDS011;21420;52.196;21.416;2023-05-10T03:30:45;10.40;;;7.70;;
35306;SDS011;21420;52.196;21.416;2023-05-10T03:33:13;11.90;;;6.60;;
35306;SDS011;21420;52.196;21.416;2023-05-10T03:35:42;12.50;;;8.00;;
35306;SDS011;21420;52.196;21.416;2023-05-10T03:38:10;13.50;;;8.20;;
35306;SDS011;21420;52.196;21.416;2023-05-10T03:40:36;13.10;;;9.30;;
35306;SDS011;21420;52.196;21.416;2023-05-10T03:43:03;16.20;;;9.40;;
35306;SDS011;21420;52.196;21.416;2023-05-10T03:45:30;9.10;;;7.90;;
35306;SDS011;21420;52.196;21.416;2023-05-10T03:47:58;13.20;;;7.80;;
35306;SDS011;21420;52.196;21.416;2023-05-10T03:50:32;13.20;;;8.60;;
35306;SDS011;21420;52.196;21.416;2023-05-10T03:52:59;14.00;;;7.60;;
35306;SDS011;21420;52.196;21.416;2023-05-10T03:55:26;13.70;;;7.70;;
35306;SDS011;21420;52.196;21.416;2023-05-10T03:57:53;18.10;;;6.60;;
35306;SDS011;21420;52.196;21.416;2023-05-10T04:00:20;12.30;;;6.30;;
35306;SDS011;21420;52.196;21.416;2023-05-10T04:02:48;16.60;;;7.00;;
35306;SDS011;21420;52.196;21.416;2023-05-10T04:05:18;10.20;;;6.20;;
35306;SDS011;21420;52.196;21.416;2023-05-10T04:07:44;9.00;;;5.40;;
35306;SDS011;21420;52.196;21.416;2023-05-10T04:10:11;12.20;;;6.50;;
35306;SDS011;21420;52.196;21.416;2023-05-10T04:12:38;12.00;;;6.30;;
35306;SDS011;21420;52.196;21.416;2023-05-10T04:15:04;12.80;;;6.30;;
35306;SDS011;21420;52.196;21.416;2023-05-10T04:17:32;7.10;;;5.40;;
35306;SDS011;21420;52.196;21.416;2023-05-10T04:19:59;11.50;;;5.50;;
35306;SDS011;21420;52.196;21.416;2023-05-10T04:22:26;10.60;;;5.90;;
35306;SDS011;21420;52.196;21.416;2023-05-10T04:24:53;7.90;;;5.90;;
35306;SDS011;21420;52.196;21.416;2023-05-10T04:27:20;11.20;;;5.80;;
35306;SDS011;21420;52.196;21.416;2023-05-10T04:29:47;11.40;;;5.80;;
35306;SDS011;21420;52.196;21.416;2023-05-10T04:32:14;8.40;;;4.90;;
35306;SDS011;21420;52.196;21.416;2023-05-10T04:34:43;10.80;;;5.80;;
35306;SDS011;21420;52.196;21.416;2023-05-10T04:37:09;8.80;;;5.30;;
35306;SDS011;21420;52.196;21.416;2023-05-10T04:39:36;11.70;;;6.00;;
35306;SDS011;21420;52.196;21.416;2023-05-10T04:42:05;8.40;;;5.30;;
35306;SDS011;21420;52.196;21.416;2023-05-10T04:44:32;13.00;;;5.50;;
35306;SDS011;21420;52.196;21.416;2023-05-10T04:46:59;7.20;;;5.50;;
35306;SDS011;21420;52.196;21.416;2023-05-10T04:49:26;7.80;;;5.50;;
35306;SDS011;21420;52.196;21.416;2023-05-10T04:51:53;12.00;;;5.80;;
35306;SDS011;21420;52.196;21.416;2023-05-10T04:54:19;11.90;;;5.20;;
35306;SDS011;21420;52.196;21.416;2023-05-10T04:56:46;12.70;;;5.50;;
35306;SDS011;21420;52.196;21.416;2023-05-10T04:59:12;12.10;;;5.50;;
35306;SDS011;21420;52.196;21.416;2023-05-10T05:01:39;9.90;;;5.60;;
35306;SDS011;21420;52.196;21.416;2023-05-10T05:04:06;12.50;;;5.90;;
35306;SDS011;21420;52.196;21.416;2023-05-10T05:06:33;9.80;;;5.40;;
35306;SDS011;21420;52.196;21.416;2023-05-10T05:08:59;9.10;;;5.80;;
35306;SDS011;21420;52.196;21.416;2023-05-10T05:11:26;12.10;;;4.90;;
35306;SDS011;21420;52.196;21.416;2023-05-10T05:13:53;13.50;;;5.10;;
35306;SDS011;21420;52.196;21.416;2023-05-10T05:16:19;9.40;;;5.50;;
35306;SDS011;21420;52.196;21.416;2023-05-10T05:18:46;9.90;;;4.70;;
35306;SDS011;21420;52.196;21.416;2023-05-10T05:21:16;12.60;;;4.80;;
35306;SDS011;21420;52.196;21.416;2023-05-10T05:23:44;11.90;;;4.60;;
35306;SDS011;21420;52.196;21.416;2023-05-10T05:26:11;14.10;;;5.50;;
35306;SDS011;21420;52.196;21.416;2023-05-10T05:28:38;12.70;;;5.10;;
35306;SDS011;21420;52.196;21.416;2023-05-10T05:31:05;14.30;;;4.80;;
35306;SDS011;21420;52.196;21.416;2023-05-10T05:33:34;8.80;;;4.50;;
35306;SDS011;21420;52.196;21.416;2023-05-10T05:36:01;11.70;;;4.90;;
35306;SDS011;21420;52.196;21.416;2023-05-10T05:38:29;10.80;;;4.90;;
35306;SDS011;21420;52.196;21.416;2023-05-10T05:40:55;12.50;;;4.90;;
35306;SDS011;21420;52.196;21.416;2023-05-10T05:43:22;16.50;;;5.60;;
35306;SDS011;21420;52.196;21.416;2023-05-10T05:45:49;18.10;;;5.10;;
35306;SDS011;21420;52.196;21.416;2023-05-10T05:48:15;16.80;;;5.40;;
35306;SDS011;21420;52.196;21.416;2023-05-10T05:50:42;12.70;;;4.80;;
35306;SDS011;21420;52.196;21.416;2023-05-10T05:53:09;12.10;;;5.30;;
35306;SDS011;21420;52.196;21.416;2023-05-10T05:55:36;14.00;;;5.60;;
35306;SDS011;21420;52.196;21.416;2023-05-10T05:58:02;15.60;;;4.70;;
35306;SDS011;21420;52.196;21.416;2023-05-10T06:00:29;16.80;;;5.10;;
35306;SDS011;21420;52.196;21.416;2023-05-10T06:02:56;15.10;;;4.70;;
35306;SDS011;21420;52.196;21.416;2023-05-10T06:05:23;13.00;;;4.40;;
35306;SDS011;21420;52.196;21.416;2023-05-10T06:07:50;14.60;;;4.80;;
35306;SDS011;21420;52.196;21.416;2023-05-10T06:10:16;13.00;;;4.70;;
35306;SDS011;21420;52.196;21.416;2023-05-10T06:12:43;13.10;;;5.10;;
35306;SDS011;21420;52.196;21.416;2023-05-10T06:15:10;8.70;;;4.10;;
35306;SDS011;21420;52.196;21.416;2023-05-10T06:17:36;13.30;;;4.00;;
35306;SDS011;21420;52.196;21.416;2023-05-10T06:20:03;12.10;;;3.90;;
35306;SDS011;21420;52.196;21.416;2023-05-10T06:22:30;11.80;;;3.90;;
35306;SDS011;21420;52.196;21.416;2023-05-10T06:24:56;9.20;;;3.40;;
35306;SDS011;21420;52.196;21.416;2023-05-10T06:27:24;7.40;;;4.00;;
35306;SDS011;21420;52.196;21.416;2023-05-10T06:29:51;9.80;;;3.70;;
35306;SDS011;21420;52.196;21.416;2023-05-10T06:32:31;9.30;;;4.00;;
35306;SDS011;21420;52.196;21.416;2023-05-10T06:34:57;11.90;;;4.50;;
35306;SDS011;21420;52.196;21.416;2023-05-10T06:37:24;9.40;;;3.30;;
35306;SDS011;21420;52.196;21.416;2023-05-10T06:39:51;10.50;;;3.40;;
35306;SDS011;21420;52.196;21.416;2023-05-10T06:42:17;11.60;;;3.10;;
35306;SDS011;21420;52.196;21.416;2023-05-10T06:44:45;6.30;;;3.10;;
35306;SDS011;21420;52.196;21.416;2023-05-10T06:47:11;4.10;;;2.70;;
35306;SDS011;21420;52.196;21.416;2023-05-10T06:49:38;5.10;;;2.80;;
35306;SDS011;21420;52.196;21.416;2023-05-10T06:52:05;6.10;;;2.50;;
35306;SDS011;21420;52.196;21.416;2023-05-10T06:54:31;8.20;;;2.90;;
35306;SDS011;21420;52.196;21.416;2023-05-10T06:56:58;4.90;;;2.30;;
35306;SDS011;21420;52.196;21.416;2023-05-10T06:59:27;8.00;;;3.20;;
35306;SDS011;21420;52.196;21.416;2023-05-10T07:01:54;5.20;;;2.10;;
35306;SDS011;21420;52.196;21.416;2023-05-10T07:04:21;4.20;;;2.50;;
35306;SDS011;21420;52.196;21.416;2023-05-10T07:06:47;4.10;;;2.60;;
35306;SDS011;21420;52.196;21.416;2023-05-10T07:09:16;6.90;;;2.40;;
35306;SDS011;21420;52.196;21.416;2023-05-10T07:11:42;4.70;;;2.20;;
35306;SDS011;21420;52.196;21.416;2023-05-10T07:14:09;9.40;;;2.70;;
35306;SDS011;21420;52.196;21.416;2023-05-10T07:16:36;3.40;;;2.20;;
35306;SDS011;21420;52.196;21.416;2023-05-10T07:19:03;3.90;;;2.20;;
35306;SDS011;21420;52.196;21.416;2023-05-10T07:21:31;5.60;;;2.40;;
35306;SDS011;21420;52.196;21.416;2023-05-10T07:23:58;7.40;;;2.80;;
35306;SDS011;21420;52.196;21.416;2023-05-10T07:26:26;6.20;;;2.50;;
35306;SDS011;21420;52.196;21.416;2023-05-10T07:28:53;6.40;;;2.80;;
35306;SDS011;21420;52.196;21.416;2023-05-10T07:31:19;4.90;;;2.50;;
35306;SDS011;21420;52.196;21.416;2023-05-10T07:33:46;8.20;;;2.70;;
35306;SDS011;21420;52.196;21.416;2023-05-10T07:36:12;4.80;;;2.30;;
35306;SDS011;21420;52.196;21.416;2023-05-10T07:38:39;4.00;;;2.30;;
35306;SDS011;21420;52.196;21.416;2023-05-10T07:41:06;6.40;;;2.20;;
35306;SDS011;21420;52.196;21.416;2023-05-10T07:43:33;3.30;;;2.20;;
35306;SDS011;21420;52.196;21.416;2023-05-10T07:46:00;3.40;;;2.10;;
35306;SDS011;21420;52.196;21.416;2023-05-10T07:49:47;3.00;;;2.20;;
35306;SDS011;21420;52.196;21.416;2023-05-10T07:52:14;5.40;;;2.20;;
35306;SDS011;21420;52.196;21.416;2023-05-10T07:54:41;3.90;;;2.10;;
35306;SDS011;21420;52.196;21.416;2023-05-10T07:57:08;5.10;;;1.80;;
35306;SDS011;21420;52.196;21.416;2023-05-10T07:59:35;2.90;;;2.10;;
35306;SDS011;21420;52.196;21.416;2023-05-10T08:02:01;7.10;;;1.90;;
35306;SDS011;21420;52.196;21.416;2023-05-10T08:04:28;5.10;;;2.50;;
35306;SDS011;21420;52.196;21.416;2023-05-10T08:06:55;3.30;;;2.10;;
35306;SDS011;21420;52.196;21.416;2023-05-10T08:09:21;3.90;;;1.60;;
35306;SDS011;21420;52.196;21.416;2023-05-10T08:11:50;5.90;;;2.20;;
35306;SDS011;21420;52.196;21.416;2023-05-10T08:14:17;10.90;;;2.20;;
35306;SDS011;21420;52.196;21.416;2023-05-10T08:16:44;5.00;;;1.90;;
35306;SDS011;21420;52.196;21.416;2023-05-10T08:19:11;3.50;;;2.40;;
35306;SDS011;21420;52.196;21.416;2023-05-10T08:21:37;6.10;;;2.20;;
35306;SDS011;21420;52.196;21.416;2023-05-10T08:24:04;2.80;;;2.30;;
35306;SDS011;21420;52.196;21.416;2023-05-10T08:26:32;7.70;;;3.70;;
35306;SDS011;21420;52.196;21.416;2023-05-10T08:28:58;4.80;;;2.20;;
35306;SDS011;21420;52.196;21.416;2023-05-10T08:31:25;5.60;;;3.70;;
35306;SDS011;21420;52.196;21.416;2023-05-10T08:33:52;5.00;;;2.30;;
35306;SDS011;21420;52.196;21.416;2023-05-10T08:36:19;5.60;;;2.90;;
35306;SDS011;21420;52.196;21.416;2023-05-10T08:38:50;5.50;;;2.00;;
35306;SDS011;21420;52.196;21.416;2023-05-10T08:41:21;7.90;;;2.10;;
35306;SDS011;21420;52.196;21.416;2023-05-10T08:43:51;5.80;;;2.40;;
35306;SDS011;21420;52.196;21.416;2023-05-10T08:46:22;2.70;;;2.00;;
35306;SDS011;21420;52.196;21.416;2023-05-10T08:48:50;3.40;;;1.90;;
35306;SDS011;21420;52.196;21.416;2023-05-10T08:51:19;3.40;;;1.80;;
35306;SDS011;21420;52.196;21.416;2023-05-10T08:53:51;5.70;;;2.10;;
35306;SDS011;21420;52.196;21.416;2023-05-10T08:56:18;5.80;;;2.00;;
35306;SDS011;21420;52.196;21.416;2023-05-10T08:58:47;3.50;;;2.00;;
35306;SDS011;21420;52.196;21.416;2023-05-10T09:01:13;6.20;;;2.00;;
35306;SDS011;21420;52.196;21.416;2023-05-10T09:03:42;3.40;;;2.10;;
35306;SDS011;21420;52.196;21.416;2023-05-10T09:06:11;3.80;;;2.10;;
35306;SDS011;21420;52.196;21.416;2023-05-10T09:08:40;5.90;;;2.00;;
35306;SDS011;21420;52.196;21.416;2023-05-10T09:13:39;8.90;;;2.40;;
35306;SDS011;21420;52.196;21.416;2023-05-10T09:18:46;4.30;;;1.80;;
35306;SDS011;21420;52.196;21.416;2023-05-10T09:21:13;5.20;;;2.00;;
35306;SDS011;21420;52.196;21.416;2023-05-10T09:23:44;2.50;;;1.80;;
35306;SDS011;21420;52.196;21.416;2023-05-10T09:26:14;3.60;;;1.70;;
35306;SDS011;21420;52.196;21.416;2023-05-10T09:28:51;4.10;;;2.30;;
35306;SDS011;21420;52.196;21.416;2023-05-10T09:31:18;4.90;;;2.10;;
35306;SDS011;21420;52.196;21.416;2023-05-10T09:33:45;5.30;;;2.50;;
35306;SDS011;21420;52.196;21.416;2023-05-10T09:36:13;6.20;;;2.00;;
35306;SDS011;21420;52.196;21.416;2023-05-10T09:38:53;8.80;;;2.30;;
35306;SDS011;21420;52.196;21.416;2023-05-10T09:41:20;5.80;;;2.00;;
35306;SDS011;21420;52.196;21.416;2023-05-10T09:43:48;5.40;;;2.40;;
35306;SDS011;21420;52.196;21.416;2023-05-10T09:46:16;6.50;;;2.10;;
35306;SDS011;21420;52.196;21.416;2023-05-10T09:48:46;4.80;;;2.10;;
35306;SDS011;21420;52.196;21.416;2023-05-10T09:51:20;8.20;;;2.20;;
35306;SDS011;21420;52.196;21.416;2023-05-10T09:53:48;4.10;;;1.80;;
35306;SDS011;21420;52.196;21.416;2023-05-10T09:56:32;11.00;;;2.40;;
35306;SDS011;21420;52.196;21.416;2023-05-10T09:59:02;14.60;;;2.40;;
35306;SDS011;21420;52.196;21.416;2023-05-10T10:01:29;8.70;;;2.30;;
35306;SDS011;21420;52.196;21.416;2023-05-10T10:03:56;8.80;;;2.40;;
35306;SDS011;21420;52.196;21.416;2023-05-10T10:06:24;6.30;;;1.90;;
35306;SDS011;21420;52.196;21.416;2023-05-10T10:08:55;10.10;;;2.20;;
35306;SDS011;21420;52.196;21.416;2023-05-10T10:11:23;8.70;;;2.10;;
35306;SDS011;21420;52.196;21.416;2023-05-10T10:13:50;6.60;;;1.90;;
35306;SDS011;21420;52.196;21.416;2023-05-10T10:16:17;5.30;;;2.00;;
35306;SDS011;21420;52.196;21.416;2023-05-10T10:18:44;4.10;;;2.20;;
35306;SDS011;21420;52.196;21.416;2023-05-10T10:21:12;8.90;;;2.40;;
35306;SDS011;21420;52.196;21.416;2023-05-10T10:23:41;6.80;;;2.60;;
35306;SDS011;21420;52.196;21.416;2023-05-10T10:26:11;7.80;;;2.30;;
35306;SDS011;21420;52.196;21.416;2023-05-10T10:31:37;10.20;;;2.20;;
35306;SDS011;21420;52.196;21.416;2023-05-10T10:34:31;6.30;;;2.10;;
35306;SDS011;21420;52.196;21.416;2023-05-10T10:36:59;2.80;;;1.80;;
35306;SDS011;21420;52.196;21.416;2023-05-10T10:39:33;10.80;;;2.20;;
35306;SDS011;21420;52.196;21.416;2023-05-10T10:42:03;3.90;;;1.70;;
35306;SDS011;21420;52.196;21.416;2023-05-10T10:49:51;3.60;;;1.80;;
35306;SDS011;21420;52.196;21.416;2023-05-10T10:52:40;5.70;;;2.30;;
35306;SDS011;21420;52.196;21.416;2023-05-10T10:55:11;6.50;;;2.10;;
35306;SDS011;21420;52.196;21.416;2023-05-10T10:57:51;4.70;;;2.30;;
35306;SDS011;21420;52.196;21.416;2023-05-10T11:03:06;4.80;;;1.90;;
35306;SDS011;21420;52.196;21.416;2023-05-10T11:05:39;6.00;;;2.10;;
35306;SDS011;21420;52.196;21.416;2023-05-10T11:08:31;5.10;;;1.90;;
35306;SDS011;21420;52.196;21.416;2023-05-10T11:11:03;4.70;;;1.70;;
35306;SDS011;21420;52.196;21.416;2023-05-10T11:13:37;6.60;;;2.10;;
35306;SDS011;21420;52.196;21.416;2023-05-10T11:16:24;3.20;;;1.90;;
35306;SDS011;21420;52.196;21.416;2023-05-10T11:21:30;3.90;;;1.70;;
35306;SDS011;21420;52.196;21.416;2023-05-10T11:23:58;7.10;;;2.60;;
35306;SDS011;21420;52.196;21.416;2023-05-10T11:26:33;4.90;;;2.20;;
35306;SDS011;21420;52.196;21.416;2023-05-10T11:29:01;4.30;;;2.20;;
35306;SDS011;21420;52.196;21.416;2023-05-10T11:31:31;2.10;;;1.80;;
35306;SDS011;21420;52.196;21.416;2023-05-10T11:34:00;3.80;;;1.60;;
35306;SDS011;21420;52.196;21.416;2023-05-10T11:36:34;3.00;;;1.50;;
35306;SDS011;21420;52.196;21.416;2023-05-10T11:39:03;4.30;;;1.90;;
35306;SDS011;21420;52.196;21.416;2023-05-10T11:41:31;3.90;;;2.00;;
35306;SDS011;21420;52.196;21.416;2023-05-10T11:43:59;6.70;;;2.70;;
35306;SDS011;21420;52.196;21.416;2023-05-10T11:46:27;3.10;;;1.80;;
35306;SDS011;21420;52.196;21.416;2023-05-10T11:48:59;3.10;;;1.80;;
35306;SDS011;21420;52.196;21.416;2023-05-10T11:51:28;4.10;;;1.90;;
35306;SDS011;21420;52.196;21.416;2023-05-10T11:53:56;4.60;;;1.80;;
35306;SDS011;21420;52.196;21.416;2023-05-10T11:56:24;2.60;;;2.20;;
35306;SDS011;21420;52.196;21.416;2023-05-10T11:58:55;7.60;;;2.10;;
35306;SDS011;21420;52.196;21.416;2023-05-10T12:01:24;2.10;;;1.80;;
35306;SDS011;21420;52.196;21.416;2023-05-10T12:03:53;3.10;;;1.90;;
35306;SDS011;21420;52.196;21.416;2023-05-10T12:06:21;5.70;;;1.80;;
35306;SDS011;21420;52.196;21.416;2023-05-10T12:08:48;4.30;;;2.00;;
35306;SDS011;21420;52.196;21.416;2023-05-10T12:11:24;2.80;;;1.80;;
35306;SDS011;21420;52.196;21.416;2023-05-10T12:13:52;5.30;;;2.00;;
35306;SDS011;21420;52.196;21.416;2023-05-10T12:16:20;4.60;;;2.00;;
35306;SDS011;21420;52.196;21.416;2023-05-10T12:18:52;5.10;;;2.00;;
35306;SDS011;21420;52.196;21.416;2023-05-10T12:21:23;7.50;;;2.30;;
35306;SDS011;21420;52.196;21.416;2023-05-10T12:23:50;3.00;;;2.10;;
35306;SDS011;21420;52.196;21.416;2023-05-10T12:26:22;2.90;;;2.00;;
35306;SDS011;21420;52.196;21.416;2023-05-10T12:28:51;4.20;;;2.30;;
35306;SDS011;21420;52.196;21.416;2023-05-10T12:31:19;2.30;;;2.10;;
35306;SDS011;21420;52.196;21.416;2023-05-10T12:33:47;10.30;;;2.60;;
35306;SDS011;21420;52.196;21.416;2023-05-10T12:36:16;17.40;;;2.70;;
35306;SDS011;21420;52.196;21.416;2023-05-10T12:38:44;5.10;;;2.40;;
35306;SDS011;21420;52.196;21.416;2023-05-10T12:41:15;6.10;;;2.50;;
35306;SDS011;21420;52.196;21.416;2023-05-10T12:43:43;5.60;;;2.30;;
35306;SDS011;21420;52.196;21.416;2023-05-10T12:46:12;5.90;;;2.00;;
35306;SDS011;21420;52.196;21.416;2023-05-10T12:48:41;3.60;;;2.00;;
35306;SDS011;21420;52.196;21.416;2023-05-10T12:51:09;4.30;;;2.40;;
35306;SDS011;21420;52.196;21.416;2023-05-10T12:53:38;3.40;;;2.10;;
35306;SDS011;21420;52.196;21.416;2023-05-10T12:56:09;4.90;;;2.40;;
35306;SDS011;21420;52.196;21.416;2023-05-10T12:58:36;5.70;;;2.20;;
35306;SDS011;21420;52.196;21.416;2023-05-10T13:01:04;8.70;;;2.30;;
35306;SDS011;21420;52.196;21.416;2023-05-10T13:03:32;3.80;;;2.30;;
35306;SDS011;21420;52.196;21.416;2023-05-10T13:05:58;2.80;;;2.10;;
35306;SDS011;21420;52.196;21.416;2023-05-10T13:08:25;8.10;;;2.10;;
35306;SDS011;21420;52.196;21.416;2023-05-10T13:10:52;4.30;;;1.90;;
35306;SDS011;21420;52.196;21.416;2023-05-10T13:13:19;3.40;;;1.90;;
35306;SDS011;21420;52.196;21.416;2023-05-10T13:15:46;3.70;;;1.90;;
35306;SDS011;21420;52.196;21.416;2023-05-10T13:18:13;2.30;;;1.60;;
35306;SDS011;21420;52.196;21.416;2023-05-10T13:20:40;5.00;;;1.90;;
35306;SDS011;21420;52.196;21.416;2023-05-10T13:23:07;3.90;;;2.10;;
35306;SDS011;21420;52.196;21.416;2023-05-10T13:25:33;6.20;;;2.20;;
35306;SDS011;21420;52.196;21.416;2023-05-10T13:28:00;4.20;;;1.80;;
35306;SDS011;21420;52.196;21.416;2023-05-10T13:30:28;5.00;;;1.90;;
35306;SDS011;21420;52.196;21.416;2023-05-10T13:32:55;5.50;;;1.70;;
35306;SDS011;21420;52.196;21.416;2023-05-10T13:35:22;4.90;;;1.60;;
35306;SDS011;21420;52.196;21.416;2023-05-10T13:37:48;3.80;;;2.20;;
35306;SDS011;21420;52.196;21.416;2023-05-10T13:40:16;9.80;;;2.20;;
35306;SDS011;21420;52.196;21.416;2023-05-10T13:42:43;5.90;;;2.40;;
35306;SDS011;21420;52.196;21.416;2023-05-10T13:45:10;4.20;;;2.20;;
35306;SDS011;21420;52.196;21.416;2023-05-10T13:47:39;5.00;;;1.90;;
35306;SDS011;21420;52.196;21.416;2023-05-10T13:50:06;8.50;;;2.50;;
35306;SDS011;21420;52.196;21.416;2023-05-10T13:52:34;3.10;;;1.70;;
35306;SDS011;21420;52.196;21.416;2023-05-10T13:55:01;8.60;;;2.80;;
35306;SDS011;21420;52.196;21.416;2023-05-10T13:57:29;4.80;;;1.80;;
35306;SDS011;21420;52.196;21.416;2023-05-10T13:59:56;5.60;;;1.80;;
35306;SDS011;21420;52.196;21.416;2023-05-10T14:02:24;8.10;;;1.80;;
35306;SDS011;21420;52.196;21.416;2023-05-10T14:04:51;3.10;;;1.70;;
35306;SDS011;21420;52.196;21.416;2023-05-10T14:07:18;3.40;;;1.70;;
35306;SDS011;21420;52.196;21.416;2023-05-10T14:09:45;5.40;;;2.00;;
35306;SDS011;21420;52.196;21.416;2023-05-10T14:12:12;7.70;;;2.10;;
35306;SDS011;21420;52.196;21.416;2023-05-10T14:14:41;9.20;;;2.50;;
35306;SDS011;21420;52.196;21.416;2023-05-10T14:17:08;4.00;;;1.70;;
35306;SDS011;21420;52.196;21.416;2023-05-10T14:19:37;6.00;;;2.00;;
35306;SDS011;21420;52.196;21.416;2023-05-10T14:22:05;3.60;;;2.00;;
35306;SDS011;21420;52.196;21.416;2023-05-10T14:24:32;6.20;;;3.20;;
35306;SDS011;21420;52.196;21.416;2023-05-10T14:26:59;7.50;;;2.10;;
35306;SDS011;21420;52.196;21.416;2023-05-10T14:29:26;6.50;;;2.00;;
35306;SDS011;21420;52.196;21.416;2023-05-10T14:31:53;10.10;;;2.10;;
35306;SDS011;21420;52.196;21.416;2023-05-10T14:34:20;3.00;;;2.00;;
35306;SDS011;21420;52.196;21.416;2023-05-10T14:36:48;5.40;;;2.00;;
35306;SDS011;21420;52.196;21.416;2023-05-10T14:39:15;5.80;;;2.40;;
35306;SDS011;21420;52.196;21.416;2023-05-10T14:41:42;4.90;;;2.20;;
35306;SDS011;21420;52.196;21.416;2023-05-10T14:44:11;3.30;;;1.90;;
35306;SDS011;21420;52.196;21.416;2023-05-10T14:46:37;3.60;;;2.50;;
35306;SDS011;21420;52.196;21.416;2023-05-10T14:49:05;4.80;;;2.00;;
35306;SDS011;21420;52.196;21.416;2023-05-10T14:51:32;4.20;;;2.20;;
35306;SDS011;21420;52.196;21.416;2023-05-10T14:53:59;2.70;;;1.80;;
35306;SDS011;21420;52.196;21.416;2023-05-10T14:56:27;3.50;;;2.60;;
35306;SDS011;21420;52.196;21.416;2023-05-10T14:58:54;13.20;;;2.20;;
35306;SDS011;21420;52.196;21.416;2023-05-10T15:01:22;7.60;;;2.50;;
35306;SDS011;21420;52.196;21.416;2023-05-10T15:03:50;5.60;;;2.90;;
35306;SDS011;21420;52.196;21.416;2023-05-10T15:06:22;2.90;;;2.60;;
35306;SDS011;21420;52.196;21.416;2023-05-10T15:08:51;5.20;;;2.00;;
35306;SDS011;21420;52.196;21.416;2023-05-10T15:11:19;4.40;;;2.20;;